Mcgrath, McGrath Airport (PAMC)

NameMcGrath Airport
CityMcgrath
CountryUnited States
ICAOPAMC
IATAMCG
Altitude104 m
CoordinatesGoogle Map
Live Air TrafficLiveATC.net
METARPAMC 051853Z AUTO 27003KT 1/2SM HZ VV002 M26/M29 A2989 RMK AO2 SLP138 T12561289 TSNO $
2019-12-05 18:53:00 Wind: West (270°) 1.54 m/s - Visibility: 3218.68 m - Weather: Haze - Temperature: -26 °C - Dew point: -29 °C - Humidity: 75.9% - Pressure: 1012.19 hPa

Sorry, no flights used the airport in this database.